createdAt,value
2023-01-09T00:01:40.488Z,2.49
2023-01-09T00:04:11.456Z,2.39
2023-01-09T00:06:40.340Z,2.41
2023-01-09T00:09:07.902Z,2.49
2023-01-09T00:11:35.522Z,2.60
2023-01-09T00:14:03.574Z,2.65
2023-01-09T00:16:31.549Z,2.69
2023-01-09T00:19:00.449Z,2.83
2023-01-09T00:21:27.971Z,2.84
2023-01-09T00:23:55.963Z,2.91
2023-01-09T00:26:23.840Z,2.97
2023-01-09T00:28:54.204Z,2.91
2023-01-09T00:31:22.638Z,2.86
2023-01-09T00:34:10.510Z,2.70
2023-01-09T00:36:38.059Z,2.69
2023-01-09T00:39:06.556Z,2.67
2023-01-09T00:41:42.719Z,2.58
2023-01-09T00:44:20.487Z,2.52
2023-01-09T00:46:53.424Z,2.49
2023-01-09T00:49:22.078Z,2.52
2023-01-09T00:51:49.837Z,2.60
2023-01-09T00:54:20.043Z,2.39
2023-01-09T00:56:47.844Z,2.23
2023-01-09T00:59:15.565Z,2.41
2023-01-09T01:01:43.269Z,2.12
2023-01-09T01:04:29.354Z,1.85
2023-01-09T01:07:15.614Z,1.61
2023-01-09T01:09:43.295Z,1.52
2023-01-09T01:12:10.786Z,1.44
2023-01-09T01:14:39.531Z,1.43
2023-01-09T01:17:08.027Z,1.40
2023-01-09T01:19:36.432Z,1.37
2023-01-09T01:22:04.798Z,1.38
2023-01-09T01:24:32.496Z,1.29
2023-01-09T01:26:59.995Z,1.39
2023-01-09T01:29:27.896Z,1.29
2023-01-09T01:31:55.462Z,1.23
2023-01-09T01:34:23.619Z,1.13
2023-01-09T01:36:51.149Z,1.08
2023-01-09T01:39:21.672Z,1.10
2023-01-09T01:41:49.133Z,1.06
2023-01-09T01:45:05.895Z,1.07
2023-01-09T01:47:45.015Z,1.02
2023-01-09T01:50:26.782Z,0.92
2023-01-09T01:53:07.004Z,0.95
2023-01-09T01:55:39.238Z,0.89
2023-01-09T01:58:11.664Z,0.80
2023-01-09T02:00:44.690Z,0.88
2023-01-09T02:03:16.068Z,0.90
2023-01-09T02:05:43.902Z,0.85
2023-01-09T02:08:12.293Z,1.01
2023-01-09T02:10:40.933Z,1.06
2023-01-09T02:13:09.808Z,1.05
2023-01-09T02:15:47.614Z,1.16
2023-01-09T02:18:27.375Z,1.26
2023-01-09T02:21:12.639Z,1.22
2023-01-09T02:24:18.362Z,1.27
2023-01-09T02:27:03.763Z,1.47
2023-01-09T02:30:01.800Z,1.51
2023-01-09T02:32:47.038Z,1.51
2023-01-09T02:35:28.526Z,1.59
2023-01-09T02:38:16.074Z,1.68
2023-01-09T02:41:13.803Z,1.80
2023-01-09T02:43:41.870Z,1.77
2023-01-09T02:46:35.845Z,1.79
2023-01-09T02:49:03.364Z,1.94
2023-01-09T02:51:53.030Z,1.90
2023-01-09T02:54:26.149Z,2.07
2023-01-09T02:57:24.684Z,2.08
2023-01-09T03:00:35.048Z,2.21
2023-01-09T03:03:34.010Z,2.17
2023-01-09T03:06:55.125Z,2.25
2023-01-09T03:09:28.261Z,2.28
2023-01-09T03:12:16.538Z,2.58
2023-01-09T03:14:50.896Z,2.56
2023-01-09T03:17:32.210Z,2.47
2023-01-09T03:20:04.711Z,2.51
2023-01-09T03:22:32.345Z,2.46
2023-01-09T03:24:59.838Z,2.44
2023-01-09T03:27:27.757Z,2.51
2023-01-09T03:29:56.635Z,2.48
2023-01-09T03:32:24.176Z,2.44
2023-01-09T03:34:51.770Z,2.47
2023-01-09T03:37:19.372Z,2.48
2023-01-09T03:39:46.904Z,2.45
2023-01-09T03:42:14.536Z,2.42
2023-01-09T03:44:41.995Z,2.47
2023-01-09T03:47:09.473Z,2.52
2023-01-09T03:49:36.956Z,2.50
2023-01-09T03:52:04.709Z,2.65
2023-01-09T03:54:32.177Z,2.88
2023-01-09T03:56:59.714Z,2.78
2023-01-09T03:59:27.329Z,2.94
2023-01-09T04:01:54.942Z,2.81
2023-01-09T04:04:22.541Z,2.77
2023-01-09T04:06:52.833Z,2.73
2023-01-09T04:09:20.367Z,2.71
2023-01-09T04:11:47.847Z,2.86
2023-01-09T04:14:15.554Z,2.89
2023-01-09T04:16:43.590Z,2.89
2023-01-09T04:19:11.096Z,2.96
2023-01-09T04:21:38.547Z,2.93
2023-01-09T04:24:06.646Z,2.99
2023-01-09T04:26:34.098Z,3.01
2023-01-09T04:29:01.707Z,3.08
2023-01-09T04:31:29.219Z,3.15
2023-01-09T04:33:56.710Z,3.16
2023-01-09T04:36:24.236Z,3.11
2023-01-09T04:38:51.761Z,3.19
2023-01-09T04:41:37.812Z,3.16
2023-01-09T04:44:06.379Z,3.22
2023-01-09T04:46:36.888Z,3.26
2023-01-09T04:49:04.418Z,3.26
2023-01-09T04:51:32.042Z,3.47
2023-01-09T04:53:59.564Z,3.48
2023-01-09T04:56:27.082Z,3.47
2023-01-09T04:58:54.683Z,3.44
2023-01-09T05:01:22.493Z,3.42
2023-01-09T05:03:50.249Z,3.48
2023-01-09T05:06:18.332Z,3.54
2023-01-09T05:08:45.993Z,3.57
2023-01-09T05:11:13.471Z,3.49
2023-01-09T05:13:41.195Z,3.59
2023-01-09T05:16:09.286Z,3.65
2023-01-09T05:18:37.117Z,3.69
2023-01-09T05:21:05.182Z,3.68
2023-01-09T05:23:32.651Z,3.50
2023-01-09T05:26:00.653Z,3.50
2023-01-09T05:28:29.340Z,3.60
2023-01-09T05:30:57.017Z,3.71
2023-01-09T05:33:24.963Z,3.75
2023-01-09T05:35:52.479Z,3.59
2023-01-09T05:38:19.924Z,3.60
2023-01-09T05:40:47.397Z,3.66
2023-01-09T05:43:14.873Z,3.67
2023-01-09T05:45:43.089Z,3.66
2023-01-09T05:48:10.600Z,3.56
2023-01-09T05:50:38.107Z,3.59
2023-01-09T05:53:06.729Z,3.59
2023-01-09T05:55:34.418Z,3.60
2023-01-09T05:58:02.525Z,3.51
2023-01-09T06:00:30.174Z,3.46
2023-01-09T06:02:57.934Z,3.56
2023-01-09T06:05:25.838Z,3.58
2023-01-09T06:07:53.300Z,3.69
2023-01-09T06:10:20.957Z,3.59
2023-01-09T06:12:50.860Z,3.38
2023-01-09T06:15:20.686Z,3.61
2023-01-09T06:17:48.717Z,3.34
2023-01-09T06:20:16.332Z,3.29
2023-01-09T06:22:45.309Z,3.32
2023-01-09T06:25:15.134Z,3.45
2023-01-09T06:27:42.697Z,3.39
2023-01-09T06:30:10.999Z,3.26
2023-01-09T06:32:38.456Z,3.30
2023-01-09T06:35:06.840Z,3.31
2023-01-09T06:37:34.463Z,3.34
2023-01-09T06:40:02.007Z,3.35
2023-01-09T06:42:30.630Z,3.33
2023-01-09T06:44:58.191Z,3.37
2023-01-09T06:47:25.648Z,3.33
2023-01-09T06:49:53.223Z,3.45
2023-01-09T06:52:20.742Z,3.52
2023-01-09T06:54:48.199Z,3.73
2023-01-09T06:57:16.335Z,3.65
2023-01-09T06:59:43.921Z,3.74
2023-01-09T07:02:21.949Z,3.75
2023-01-09T07:04:49.577Z,3.67
2023-01-09T07:07:17.114Z,3.65
2023-01-09T07:09:44.661Z,3.61
2023-01-09T07:12:12.942Z,3.60
2023-01-09T07:14:40.577Z,3.66
2023-01-09T07:17:08.120Z,3.84
2023-01-09T07:19:35.638Z,3.77
2023-01-09T07:22:03.113Z,3.79
2023-01-09T07:24:33.216Z,3.82
2023-01-09T07:27:00.812Z,3.92
2023-01-09T07:29:28.294Z,3.96
2023-01-09T07:31:55.776Z,3.99
2023-01-09T07:34:23.315Z,4.09
2023-01-09T07:36:51.268Z,4.01
2023-01-09T07:39:18.812Z,3.87
2023-01-09T07:41:46.853Z,3.81
2023-01-09T07:44:16.461Z,3.91
2023-01-09T07:46:44.004Z,3.96
2023-01-09T07:49:11.531Z,4.00
2023-01-09T07:51:43.030Z,4.09
2023-01-09T07:54:12.663Z,4.14
2023-01-09T07:56:41.257Z,4.20
2023-01-09T07:59:09.240Z,4.36
2023-01-09T08:01:37.108Z,4.25
2023-01-09T08:04:04.823Z,4.30
2023-01-09T08:06:32.636Z,4.30
2023-01-09T08:09:01.740Z,4.38
2023-01-09T08:11:29.225Z,4.25
2023-01-09T08:13:56.732Z,4.26
2023-01-09T08:16:24.413Z,4.26
2023-01-09T08:18:51.939Z,4.27
2023-01-09T08:21:19.352Z,4.39
2023-01-09T08:23:47.879Z,4.27
2023-01-09T08:26:15.340Z,4.32
2023-01-09T08:28:42.869Z,4.41
2023-01-09T08:31:10.341Z,4.38
2023-01-09T08:33:40.421Z,4.34
2023-01-09T08:36:08.616Z,4.54
2023-01-09T08:38:36.166Z,4.50
2023-01-09T08:41:23.629Z,4.50
2023-01-09T08:44:11.267Z,4.60
2023-01-09T08:46:57.469Z,4.56
2023-01-09T08:49:24.906Z,4.53
2023-01-09T08:51:52.341Z,4.62
2023-01-09T08:54:19.875Z,4.61
2023-01-09T08:56:47.398Z,4.63
2023-01-09T08:59:17.866Z,4.62
2023-01-09T09:01:45.470Z,4.66
2023-01-09T09:04:13.045Z,4.66
2023-01-09T09:06:40.801Z,4.87
2023-01-09T09:09:08.382Z,4.94
2023-01-09T09:11:36.664Z,4.90
2023-01-09T09:14:27.369Z,4.89
2023-01-09T09:16:55.078Z,4.92
2023-01-09T09:19:22.739Z,4.96
2023-01-09T09:21:50.398Z,4.91
2023-01-09T09:24:18.079Z,4.95
2023-01-09T09:26:45.581Z,4.90
2023-01-09T09:29:13.197Z,5.02
2023-01-09T09:31:40.791Z,5.01
2023-01-09T09:34:08.974Z,5.00
2023-01-09T09:36:36.624Z,5.17
2023-01-09T09:39:07.199Z,5.06
2023-01-09T09:42:25.400Z,5.01
2023-01-09T09:45:18.367Z,4.99
2023-01-09T09:48:19.176Z,5.51
2023-01-09T09:51:06.868Z,5.34
2023-01-09T09:53:55.081Z,5.35
2023-01-09T09:56:24.480Z,5.17
2023-01-09T09:59:01.854Z,5.12
2023-01-09T10:02:00.355Z,5.13
2023-01-09T10:04:32.587Z,5.17
2023-01-09T10:07:14.059Z,5.30
2023-01-09T10:09:54.430Z,5.39
2023-01-09T10:12:45.168Z,5.45
2023-01-09T10:15:31.469Z,5.41
2023-01-09T10:18:25.494Z,5.36
2023-01-09T10:21:03.556Z,5.35
2023-01-09T10:23:49.119Z,5.32
2023-01-09T10:26:38.199Z,5.42
2023-01-09T10:29:44.916Z,5.38
2023-01-09T10:32:46.099Z,5.47
2023-01-09T10:35:47.965Z,5.58
2023-01-09T10:38:25.832Z,5.59
2023-01-09T10:41:04.027Z,5.61
2023-01-09T10:43:37.862Z,5.63
2023-01-09T10:46:18.432Z,5.64
2023-01-09T10:48:52.797Z,5.60
2023-01-09T10:51:43.522Z,5.68
2023-01-09T10:54:23.348Z,5.66
2023-01-09T10:57:07.294Z,5.74
2023-01-09T10:59:36.436Z,5.76
2023-01-09T11:02:04.435Z,5.70
2023-01-09T11:04:36.521Z,5.90
2023-01-09T11:07:17.210Z,5.86
2023-01-09T11:10:09.809Z,5.86
2023-01-09T11:12:37.730Z,5.89
2023-01-09T11:15:31.311Z,5.93
2023-01-09T11:18:20.179Z,5.93
2023-01-09T11:20:48.281Z,5.93
2023-01-09T11:23:33.672Z,6.03
2023-01-09T11:26:03.135Z,6.08
2023-01-09T11:28:31.443Z,6.10
2023-01-09T11:31:02.416Z,6.27
2023-01-09T11:33:36.556Z,6.28
2023-01-09T11:36:15.192Z,6.41
2023-01-09T11:38:55.933Z,6.38
2023-01-09T11:41:34.471Z,6.43
2023-01-09T11:44:05.153Z,6.54
2023-01-09T11:46:43.986Z,6.41
2023-01-09T11:49:22.883Z,6.48
2023-01-09T11:52:15.190Z,6.46
2023-01-09T11:55:06.813Z,6.41
2023-01-09T11:57:34.714Z,6.48
2023-01-09T12:00:25.840Z,6.54
2023-01-09T12:03:02.200Z,6.55
2023-01-09T12:05:55.440Z,6.58
2023-01-09T12:08:51.644Z,6.67
2023-01-09T12:11:39.786Z,6.68
2023-01-09T12:14:31.491Z,6.64
2023-01-09T12:18:11.165Z,6.66
2023-01-09T12:20:59.915Z,6.85
2023-01-09T12:23:55.026Z,6.76
2023-01-09T12:26:24.020Z,6.78
2023-01-09T12:29:07.340Z,6.82
2023-01-09T12:31:58.922Z,6.77
2023-01-09T12:34:59.205Z,6.90
2023-01-09T12:38:05.271Z,6.73
2023-01-09T12:41:00.176Z,6.73
2023-01-09T12:43:50.920Z,6.65
2023-01-09T12:46:26.821Z,6.78
2023-01-09T12:49:29.801Z,6.78
2023-01-09T12:52:24.436Z,6.77
2023-01-09T12:55:05.012Z,6.72
2023-01-09T12:57:43.071Z,6.82
2023-01-09T13:00:22.860Z,6.86
2023-01-09T13:03:16.176Z,6.95
2023-01-09T13:05:49.557Z,6.88
2023-01-09T13:08:39.071Z,7.03
2023-01-09T13:11:20.448Z,6.99
2023-01-09T13:14:51.334Z,6.90
2023-01-09T13:17:30.740Z,6.83
2023-01-09T13:19:58.355Z,6.92
2023-01-09T13:22:29.286Z,6.91
2023-01-09T13:25:24.984Z,6.88
2023-01-09T13:28:00.795Z,6.77
2023-01-09T13:31:03.784Z,6.82
2023-01-09T13:33:37.153Z,6.70
2023-01-09T13:36:05.882Z,6.81
2023-01-09T13:38:36.380Z,6.74
2023-01-09T13:41:35.615Z,6.80
2023-01-09T13:44:28.801Z,6.90
2023-01-09T13:47:01.207Z,6.76
2023-01-09T13:49:41.917Z,7.00
2023-01-09T13:52:45.607Z,7.05
2023-01-09T13:55:16.003Z,6.91
2023-01-09T13:58:13.682Z,6.88
2023-01-09T14:00:44.196Z,6.72
2023-01-09T14:03:38.751Z,6.73
2023-01-09T14:06:13.259Z,6.66
2023-01-09T14:08:42.086Z,6.58
2023-01-09T14:11:11.410Z,6.55
2023-01-09T14:13:38.958Z,6.56
2023-01-09T14:16:20.720Z,6.61
2023-01-09T14:19:14.470Z,6.50
2023-01-09T14:22:00.039Z,6.48
2023-01-09T14:24:34.493Z,6.47
2023-01-09T14:27:02.642Z,6.46
2023-01-09T14:29:35.843Z,6.45
2023-01-09T14:32:26.496Z,6.47
2023-01-09T14:35:08.194Z,6.49
2023-01-09T14:37:40.698Z,6.64
2023-01-09T14:40:21.885Z,6.70
2023-01-09T14:42:57.130Z,6.55
2023-01-09T14:45:27.779Z,6.46
2023-01-09T14:48:02.803Z,6.48
2023-01-09T14:50:48.865Z,6.40
2023-01-09T14:53:28.465Z,6.41
2023-01-09T14:55:59.656Z,6.47
2023-01-09T14:58:33.663Z,6.53
2023-01-09T15:01:05.123Z,6.36
2023-01-09T15:03:51.562Z,6.26
2023-01-09T15:06:23.148Z,6.37
2023-01-09T15:09:12.747Z,6.22
2023-01-09T15:11:40.917Z,6.25
2023-01-09T15:14:18.749Z,6.26
2023-01-09T15:16:46.358Z,6.67
2023-01-09T15:19:16.674Z,7.12
2023-01-09T15:21:59.098Z,6.68
2023-01-09T15:24:29.930Z,7.02
2023-01-09T15:27:01.963Z,6.55
2023-01-09T15:29:30.248Z,6.29
2023-01-09T15:32:30.419Z,6.36
2023-01-09T15:34:58.745Z,6.15
2023-01-09T15:37:34.521Z,6.45
2023-01-09T15:40:08.103Z,6.57
2023-01-09T15:42:58.059Z,6.55
2023-01-09T15:45:44.798Z,6.31
2023-01-09T15:48:21.846Z,6.14
2023-01-09T15:50:58.706Z,6.10
2023-01-09T15:53:27.998Z,5.97
2023-01-09T15:56:31.057Z,6.04
2023-01-09T15:59:00.582Z,5.84
2023-01-09T16:01:36.052Z,5.74
2023-01-09T16:04:15.814Z,5.67
2023-01-09T16:06:50.501Z,5.69
2023-01-09T16:09:31.240Z,5.86
2023-01-09T16:12:02.222Z,5.83
2023-01-09T16:14:35.323Z,5.74
2023-01-09T16:17:08.008Z,5.67
2023-01-09T16:19:55.418Z,5.70
2023-01-09T16:22:36.255Z,5.70
2023-01-09T16:25:31.678Z,5.70
2023-01-09T16:28:15.273Z,5.67
2023-01-09T16:31:28.652Z,5.69
2023-01-09T16:34:07.011Z,5.63
2023-01-09T16:36:36.322Z,5.71
2023-01-09T16:39:04.498Z,5.76
2023-01-09T16:41:51.144Z,5.83
2023-01-09T16:44:19.470Z,5.75
2023-01-09T16:46:49.827Z,5.79
2023-01-09T16:49:29.449Z,5.79
2023-01-09T16:51:57.233Z,5.77
2023-01-09T16:54:24.703Z,5.80
2023-01-09T16:56:55.219Z,5.84
2023-01-09T16:59:29.603Z,5.96
2023-01-09T17:01:59.731Z,5.98
2023-01-09T17:04:30.300Z,6.03
2023-01-09T17:06:57.746Z,6.00
2023-01-09T17:09:27.882Z,6.03
2023-01-09T17:11:55.327Z,6.02
2023-01-09T17:14:24.620Z,5.95
2023-01-09T17:16:53.553Z,6.01
2023-01-09T17:19:21.703Z,5.98
2023-01-09T17:21:52.465Z,5.98
2023-01-09T17:24:41.085Z,5.98
2023-01-09T17:27:31.006Z,6.00
2023-01-09T17:30:03.005Z,6.03
2023-01-09T17:32:33.674Z,6.04
2023-01-09T17:35:04.646Z,5.98
2023-01-09T17:37:32.260Z,5.96
2023-01-09T17:40:03.922Z,6.00
2023-01-09T17:42:33.127Z,6.04
2023-01-09T17:45:02.179Z,6.11
2023-01-09T17:47:30.197Z,6.24
2023-01-09T17:50:00.770Z,6.37
2023-01-09T17:52:29.137Z,6.26
2023-01-09T17:54:57.089Z,6.19
2023-01-09T17:57:25.219Z,6.14
2023-01-09T17:59:52.689Z,6.07
2023-01-09T18:02:20.770Z,6.06
2023-01-09T18:04:50.127Z,6.01
2023-01-09T18:07:21.692Z,6.07
2023-01-09T18:09:50.239Z,6.16
2023-01-09T18:12:19.755Z,6.23
2023-01-09T18:14:48.726Z,6.32
2023-01-09T18:17:17.063Z,6.39
2023-01-09T18:19:46.421Z,6.28
2023-01-09T18:22:18.957Z,6.32
2023-01-09T18:24:49.698Z,6.27
2023-01-09T18:27:18.484Z,6.18
2023-01-09T18:29:50.389Z,6.12
2023-01-09T18:32:21.218Z,6.20
2023-01-09T18:34:52.089Z,6.29
2023-01-09T18:37:21.621Z,6.14
2023-01-09T18:39:50.635Z,6.16
2023-01-09T18:42:19.552Z,6.11
2023-01-09T18:44:51.825Z,6.26
2023-01-09T18:47:19.351Z,6.34
2023-01-09T18:49:50.837Z,6.26
2023-01-09T18:52:21.416Z,6.17
2023-01-09T18:55:12.031Z,6.17
2023-01-09T18:57:41.011Z,6.15
2023-01-09T19:00:14.395Z,6.18
2023-01-09T19:02:45.607Z,6.18
2023-01-09T19:05:15.624Z,6.22
2023-01-09T19:07:48.292Z,6.25
2023-01-09T19:10:18.789Z,6.24
2023-01-09T19:12:48.842Z,6.27
2023-01-09T19:15:18.403Z,6.18
2023-01-09T19:17:46.912Z,6.10
2023-01-09T19:20:14.800Z,6.14
2023-01-09T19:23:06.457Z,6.27
2023-01-09T19:25:34.785Z,6.20
2023-01-09T19:28:03.877Z,6.25
2023-01-09T19:30:36.900Z,6.49
2023-01-09T19:33:08.088Z,6.38
2023-01-09T19:35:38.501Z,6.34
2023-01-09T19:38:12.511Z,6.34
2023-01-09T19:40:41.641Z,6.22
2023-01-09T19:43:28.231Z,6.33
2023-01-09T19:46:00.858Z,6.33
2023-01-09T19:48:36.936Z,6.22
2023-01-09T19:51:10.325Z,6.25
2023-01-09T19:53:51.559Z,6.17
2023-01-09T19:56:23.333Z,6.22
2023-01-09T19:58:59.314Z,6.26
2023-01-09T20:01:36.085Z,6.24
2023-01-09T20:04:14.541Z,6.12
2023-01-09T20:06:53.999Z,6.16
2023-01-09T20:09:24.237Z,6.19
2023-01-09T20:11:59.495Z,6.18
2023-01-09T20:14:31.263Z,6.26
2023-01-09T20:17:02.395Z,6.38
2023-01-09T20:19:34.065Z,6.34
2023-01-09T20:22:05.484Z,6.38
2023-01-09T20:24:35.668Z,6.36
2023-01-09T20:27:14.033Z,6.36
2023-01-09T20:29:45.741Z,6.37
2023-01-09T20:32:34.258Z,6.30
2023-01-09T20:35:06.183Z,6.26
2023-01-09T20:37:45.557Z,6.34
2023-01-09T20:40:19.979Z,6.39
2023-01-09T20:42:47.526Z,6.54
2023-01-09T20:45:16.253Z,6.52
2023-01-09T20:47:48.174Z,6.47
2023-01-09T20:50:22.583Z,6.47
2023-01-09T20:52:52.027Z,6.53
2023-01-09T20:55:24.664Z,6.40
2023-01-09T20:58:15.409Z,6.43
2023-01-09T21:00:47.490Z,6.33
2023-01-09T21:03:17.028Z,6.27
2023-01-09T21:05:44.784Z,6.24
2023-01-09T21:08:13.543Z,6.25
2023-01-09T21:10:44.018Z,6.22
2023-01-09T21:13:13.909Z,6.26
2023-01-09T21:15:41.566Z,6.29
2023-01-09T21:18:29.207Z,6.32
2023-01-09T21:20:56.857Z,6.45
2023-01-09T21:23:27.118Z,6.51
2023-01-09T21:25:54.595Z,6.47
2023-01-09T21:28:23.735Z,6.41
2023-01-09T21:30:51.235Z,6.42
2023-01-09T21:33:23.062Z,6.39
2023-01-09T21:35:58.167Z,6.33
2023-01-09T21:38:33.643Z,6.33
2023-01-09T21:41:20.012Z,6.35
2023-01-09T21:44:05.992Z,6.38
2023-01-09T21:46:52.198Z,6.35
2023-01-09T21:49:23.374Z,6.34
2023-01-09T21:51:51.866Z,6.33
2023-01-09T21:54:23.476Z,6.57
2023-01-09T21:56:53.035Z,6.59
2023-01-09T21:59:21.026Z,6.45
2023-01-09T22:01:50.230Z,6.44
2023-01-09T22:04:21.117Z,6.45
2023-01-09T22:06:48.659Z,6.40
2023-01-09T22:09:16.681Z,6.38
2023-01-09T22:11:44.864Z,6.39
2023-01-09T22:14:19.155Z,6.41
2023-01-09T22:16:47.533Z,6.36
2023-01-09T22:19:18.157Z,6.34
2023-01-09T22:21:48.461Z,6.40
2023-01-09T22:24:19.306Z,6.34
2023-01-09T22:26:46.863Z,6.35
2023-01-09T22:29:16.363Z,6.36
2023-01-09T22:31:44.148Z,6.36
2023-01-09T22:34:16.774Z,6.37
2023-01-09T22:36:46.107Z,6.37
2023-01-09T22:39:16.546Z,6.42
2023-01-09T22:41:44.417Z,6.37
2023-01-09T22:44:14.561Z,6.41
2023-01-09T22:46:42.062Z,6.41
2023-01-09T22:49:12.608Z,6.42
2023-01-09T22:51:40.251Z,6.33
2023-01-09T22:54:08.321Z,6.31
2023-01-09T22:56:36.267Z,6.29
2023-01-09T22:59:04.188Z,6.30
2023-01-09T23:01:31.763Z,6.22
2023-01-09T23:03:59.284Z,6.20
2023-01-09T23:06:26.792Z,6.38
2023-01-09T23:08:54.832Z,6.35
2023-01-09T23:11:45.698Z,6.28
2023-01-09T23:14:17.736Z,6.22
2023-01-09T23:16:45.450Z,6.30
2023-01-09T23:19:14.683Z,6.27
2023-01-09T23:21:43.528Z,6.35
2023-01-09T23:24:12.587Z,6.41
2023-01-09T23:26:40.246Z,6.36
2023-01-09T23:29:08.336Z,6.33
2023-01-09T23:31:37.807Z,6.35
2023-01-09T23:34:08.156Z,6.37
2023-01-09T23:36:37.577Z,6.42
2023-01-09T23:39:09.016Z,6.53
2023-01-09T23:41:56.066Z,6.32
2023-01-09T23:44:27.139Z,6.35
2023-01-09T23:46:54.730Z,6.27
2023-01-09T23:49:22.624Z,6.36
2023-01-09T23:51:50.240Z,6.30
2023-01-09T23:54:17.702Z,6.33
2023-01-09T23:56:45.282Z,6.55
2023-01-09T23:59:14.699Z,6.56
